Flight Track Log - Related Links

Times and Time Zones

All times are in EDT time to prevent confusion due to time zone crossing. See the N39477 flight status page for this flight to view local times or setup timezone preferences in your user account.

Time Position Orientation Groundspeed Altitude Reporting Facility
EDT Latitude Longitude Course Direction KTS MPH feet Rate Location/Type
Sun 03:37:15 PM 38.1356 -92.6839 302° West 113 130 3,800  Level Kansas City Center
Sun 03:38:15 PM 38.1572 -92.7203 307° West 112 129 4,500 532 Climbing Kansas City Center
Sun 03:39:19 PM 38.1747 -92.7517 305° West 109 125 4,900 387 Climbing Kansas City Center
Sun 03:40:19 PM 38.1922 -92.7861 303° West 110 127 5,300 384 Climbing Kansas City Center
Sun 03:41:00 PM 38.1984 -92.7346 306° West  Level FlightAware Approximate
Sun 03:41:24 PM 38.2117 -92.8200 306° West 114 131 5,700  Level Kansas City Center
Sun 03:42:00 PM 38.2175 -92.7683 302° West  Level FlightAware Approximate
Sun 03:42:24 PM 38.2314 -92.8506 309° West 114 131 6,000  Level Kansas City Center
Sun 03:43:25 PM 38.2497 -92.8828 306° West 114 131 6,300 240 Climbing Kansas City Center
Sun 03:44:29 PM 38.2675 -92.9167 304° West 114 131 6,500 96 Climbing Kansas City Center
Sun 03:45:30 PM 38.2897 -92.9631 301° West 120 138 6,500  Level Kansas City Center
Sun 03:46:34 PM 38.3119 -93.0025 306° West 129 148 6,500  Level Kansas City Center
Sun 03:47:34 PM 38.3358 -93.0383 310° West 131 151 6,500 197 Level Kansas City Center
Sun 03:48:36 PM 38.3583 -93.0742 309° West 131 151 6,900 480 Climbing Kansas City Center
Sun 03:49:39 PM 38.3789 -93.1047 311° West 125 144 7,500 484 Climbing Kansas City Center
Sun 03:50:40 PM 38.3978 -93.1319 312° West 112 129 7,900 435 Climbing Kansas City Center
Sun 03:51:43 PM 38.4192 -93.1700 306° West 111 128 8,400 290 Climbing Kansas City Center
Sun 03:52:44 PM 38.4353 -93.2042 301° West 111 128 8,500 48 Climbing Kansas City Center
Sun 03:53:48 PM 38.4561 -93.2397 307° West 122 140 8,500  Level Kansas City Center
Sun 03:54:49 PM 38.4781 -93.2744 309° West 123 142 8,500  Level Kansas City Center
Sun 03:55:51 PM 38.4986 -93.3117 305° West 124 143 8,500 49 Level Kansas City Center
Sun 03:56:52 PM 38.5197 -93.3486 306° West 125 144 8,600  Climbing Kansas City Center
Sun 03:57:56 PM 38.5428 -93.3878 307° West 132 152 8,500 -94 Descending Kansas City Center
Sun 03:58:59 PM 38.5706 -93.4328 308° West 133 153 8,400 -48 Descending Kansas City Center
Sun 04:00:00 PM 38.5947 -93.4681 311° West 133 153 8,400 49 Level Kansas City Center
Sun 04:01:01 PM 38.6183 -93.4992 314° West 127 146 8,500 48 Climbing Kansas City Center
Sun 04:02:05 PM 38.6361 -93.5333 304° West 120 138 8,500 48 Level Kansas City Center
Sun 04:03:05 PM 38.6536 -93.5689 302° West 120 138 8,600  Climbing Kansas City Center
Sun 04:04:09 PM 38.6717 -93.6064 302° West 120 138 8,500 -96 Descending Kansas City Center
Sun 04:05:10 PM 38.6972 -93.6503 307° West 123 142 8,400  Descending Kansas City Center
Sun 04:06:13 PM 38.7203 -93.6869 309° West 126 145 8,500 48 Climbing Kansas City Center
Sun 04:07:14 PM 38.7425 -93.7250 307° West 133 153 8,500  Level Kansas City Center
Sun 04:08:16 PM 38.7658 -93.7644 307° West 132 152 8,500  Level Kansas City Center
Sun 04:09:18 PM 38.7878 -93.8019 307° West 132 152 8,500 -48 Level Kansas City Center
Sun 04:10:21 PM 38.8103 -93.8386 308° West 131 151 8,400 -48 Descending Kansas City Center
Sun 04:11:23 PM 38.8319 -93.8764 306° West 132 152 8,400 49 Level Kansas City Center
Sun 04:12:23 PM 38.8531 -93.9133 306° West 131 151 8,500 48 Climbing Kansas City Center
Sun 04:13:27 PM 38.8783 -93.9581 306° West 130 150 8,500 -48 Level Kansas City Center
Sun 04:14:28 PM 38.8992 -93.9983 304° West 132 152 8,400  Descending Kansas City Center
Sun 04:15:31 PM 38.9225 -94.0353 309° West 134 154 8,500 48 Climbing Kansas City Center
Sun 04:16:33 PM 38.9436 -94.0739 305° West 133 153 8,500 -49 Level Kansas City Center
Sun 04:17:34 PM 38.9653 -94.1128 306° West 134 154 8,400 -48 Descending Kansas City Center
Sun 04:18:37 PM 38.9858 -94.1519 304° West 133 153 8,400 48 Level Kansas City Center
Sun 04:19:38 PM 39.0092 -94.1983 303° West 131 151 8,500 48 Climbing Kansas City Center
Sun 04:20:41 PM 39.0300 -94.2375 304° West 132 152 8,500 -48 Level Kansas City Center
Sun 04:21:42 PM 39.0489 -94.2764 302° West 131 151 8,400 -48 Descending Kansas City Center
Sun 04:22:46 PM 39.0706 -94.3169 305° West 132 152 8,400 -48 Level Kansas City Center
Sun 04:23:46 PM 39.0928 -94.3561 306° West 133 153 8,300 -387 Descending Kansas City Center
Sun 04:24:50 PM 39.1236 -94.4047 309° West 144 166 7,600 -720 Descending Kansas City Center
Sun 04:25:51 PM 39.1511 -94.4458 311° West 149 171 6,800 -689 Descending Kansas City Center
Sun 04:26:52 PM 39.1719 -94.4906 301° West 148 170 6,200 -576 Descending Kansas City Center
Sun 04:27:56 PM 39.1914 -94.5353 299° West 146 168 5,600 -576 Descending Kansas City Center
Sun 04:28:57 PM 39.2208 -94.5767 313° West 153 176 5,000 -443 Descending Kansas City Center
Sun 04:29:58 PM 39.2492 -94.6192 311° West 158 182 4,700 -288 Descending Kansas City Center
Sun 04:31:02 PM 39.2825 -94.6683 311° West 154 177 4,400 -192 Descending Kansas City Center
Sun 04:32:03 PM 39.2983 -94.7117 295° West 137 158 4,300 -290 Descending Kansas City Center
Sun 04:33:06 PM 39.3094 -94.7600 287° West 139 160 3,800 -532 Descending Kansas City Center
Sun 04:34:07 PM 39.3250 -94.8133 291° West 154 177 3,200 -528 Descending Kansas City Center
Sun 04:35:11 PM 39.3456 -94.8736 294° West 160 184 2,700 -469 Descending Kansas City Center

Login

Don't have an account? Register now (free) for customized features, flight alerts, and more!